createdAt,value
2022-12-14T00:00:33.259Z,188.61
2022-12-14T00:01:36.774Z,195.87
2022-12-14T00:02:42.865Z,205.61
2022-12-14T00:03:50.281Z,198.01
2022-12-14T00:04:53.668Z,196.09
2022-12-14T00:06:03.117Z,189.28
2022-12-14T00:07:07.877Z,182.84
2022-12-14T00:08:15.545Z,182.24
2022-12-14T00:09:21.455Z,179.69
2022-12-14T00:10:25.640Z,177.14
2022-12-14T00:11:35.250Z,180.20
2022-12-14T00:12:41.222Z,178.60
2022-12-14T00:13:44.919Z,177.35
2022-12-14T00:14:55.183Z,174.57
2022-12-14T00:15:59.258Z,169.26
2022-12-14T00:17:06.006Z,166.74
2022-12-14T00:18:11.713Z,160.84
2022-12-14T00:19:17.697Z,158.51
2022-12-14T00:20:21.187Z,151.07
2022-12-14T00:21:31.169Z,143.66
2022-12-14T00:22:35.326Z,147.20
2022-12-14T00:23:43.338Z,145.36
2022-12-14T00:24:46.810Z,143.41
2022-12-14T00:25:52.838Z,146.26
2022-12-14T00:26:56.137Z,149.38
2022-12-14T00:28:03.077Z,146.65
2022-12-14T00:29:06.418Z,146.27
2022-12-14T00:30:14.703Z,146.19
2022-12-14T00:31:18.360Z,146.52
2022-12-14T00:32:26.547Z,146.92
2022-12-14T00:33:31.135Z,152.86
2022-12-14T00:34:37.262Z,153.84
2022-12-14T00:35:40.641Z,152.77
2022-12-14T00:36:49.163Z,168.87
2022-12-14T00:37:52.545Z,178.24
2022-12-14T00:38:59.351Z,181.63
2022-12-14T00:40:02.724Z,180.72
2022-12-14T00:41:10.070Z,183.75
2022-12-14T00:42:13.419Z,194.45
2022-12-14T00:43:19.407Z,203.32
2022-12-14T00:44:26.430Z,206.48
2022-12-14T00:45:29.795Z,201.09
2022-12-14T00:46:35.819Z,202.82
2022-12-14T00:47:40.975Z,204.41
2022-12-14T00:48:47.262Z,218.07
2022-12-14T00:49:53.655Z,202.79
2022-12-14T00:51:00.095Z,202.43
2022-12-14T00:52:08.912Z,203.74
2022-12-14T00:53:12.702Z,206.51
2022-12-14T00:54:19.131Z,204.97
2022-12-14T00:55:23.422Z,200.18
2022-12-14T00:56:29.505Z,202.22
2022-12-14T00:57:32.820Z,198.41
2022-12-14T00:58:39.128Z,193.77
2022-12-14T00:59:43.327Z,195.24
2022-12-14T01:01:02.356Z,189.12
2022-12-14T01:02:06.359Z,188.70
2022-12-14T01:03:13.905Z,190.11
2022-12-14T01:04:22.619Z,184.81
2022-12-14T01:05:29.076Z,185.56
2022-12-14T01:06:33.182Z,183.60
2022-12-14T01:07:41.771Z,181.80
2022-12-14T01:08:45.210Z,178.80
2022-12-14T01:09:51.177Z,173.19
2022-12-14T01:10:54.753Z,175.86
2022-12-14T01:12:01.575Z,174.77
2022-12-14T01:13:04.859Z,170.36
2022-12-14T01:14:12.280Z,172.55
2022-12-14T01:15:15.636Z,164.38
2022-12-14T01:16:21.663Z,160.36
2022-12-14T01:17:28.615Z,159.15
2022-12-14T01:18:35.472Z,157.63
2022-12-14T01:19:41.617Z,154.41
2022-12-14T01:20:45.060Z,153.10
2022-12-14T01:21:51.071Z,148.08
2022-12-14T01:22:58.060Z,146.45
2022-12-14T01:24:06.702Z,145.24
2022-12-14T01:25:10.291Z,143.35
2022-12-14T01:26:17.997Z,140.93
2022-12-14T01:27:21.520Z,140.39
2022-12-14T01:28:28.513Z,139.02
2022-12-14T01:29:34.515Z,139.85
2022-12-14T01:30:40.508Z,145.02
2022-12-14T01:31:48.621Z,143.08
2022-12-14T01:32:53.050Z,145.09
2022-12-14T01:34:00.959Z,145.27
2022-12-14T01:35:05.305Z,140.93
2022-12-14T01:36:14.800Z,132.74
2022-12-14T01:37:18.178Z,132.35
2022-12-14T01:38:26.860Z,129.72
2022-12-14T01:39:34.208Z,127.90
2022-12-14T01:40:38.044Z,129.56
2022-12-14T01:41:47.541Z,129.45
2022-12-14T01:42:50.967Z,134.84
2022-12-14T01:44:00.272Z,128.82
2022-12-14T01:45:07.455Z,132.51
2022-12-14T01:46:13.565Z,137.75
2022-12-14T01:47:31.788Z,141.16
2022-12-14T01:48:35.270Z,141.44
2022-12-14T01:49:52.021Z,142.93
2022-12-14T01:50:56.387Z,140.83
2022-12-14T01:52:12.657Z,141.06
2022-12-14T01:53:28.978Z,142.44
2022-12-14T01:54:41.073Z,141.80
2022-12-14T01:55:55.022Z,144.34
2022-12-14T01:57:00.093Z,147.98
2022-12-14T01:58:14.356Z,145.57
2022-12-14T01:59:26.831Z,149.38
2022-12-14T02:00:33.342Z,148.15
2022-12-14T02:01:37.674Z,148.80
2022-12-14T02:02:51.344Z,149.05
2022-12-14T02:03:55.303Z,147.50
2022-12-14T02:05:08.953Z,151.03
2022-12-14T02:06:20.137Z,157.99
2022-12-14T02:07:30.876Z,158.69
2022-12-14T02:08:47.059Z,155.84
2022-12-14T02:09:54.135Z,157.45
2022-12-14T02:11:02.902Z,160.73
2022-12-14T02:12:15.357Z,155.83
2022-12-14T02:13:29.205Z,154.07
2022-12-14T02:14:34.506Z,153.99
2022-12-14T02:15:42.620Z,150.70
2022-12-14T02:16:46.217Z,148.92
2022-12-14T02:17:53.119Z,142.56
2022-12-14T02:18:56.505Z,139.62
2022-12-14T02:20:02.906Z,136.96
2022-12-14T02:21:35.435Z,138.09
2022-12-14T02:23:35.491Z,135.43
2022-12-14T02:25:20.553Z,135.17
2022-12-14T02:27:00.255Z,134.84
2022-12-14T02:28:56.612Z,134.28
2022-12-14T02:30:08.966Z,132.30
2022-12-14T02:31:28.884Z,130.90
2022-12-14T02:33:04.998Z,132.58
2022-12-14T02:34:24.868Z,133.68
2022-12-14T02:35:49.764Z,127.12
2022-12-14T02:37:04.566Z,130.65
2022-12-14T02:38:34.839Z,127.36
2022-12-14T02:40:00.595Z,126.01
2022-12-14T02:41:20.260Z,131.52
2022-12-14T02:42:40.323Z,130.61
2022-12-14T02:44:07.291Z,131.03
2022-12-14T02:45:27.584Z,129.00
2022-12-14T02:46:50.560Z,127.75
2022-12-14T02:48:03.513Z,126.71
2022-12-14T02:49:19.276Z,123.71
2022-12-14T02:50:34.336Z,124.35
2022-12-14T02:51:59.162Z,126.78
2022-12-14T02:53:16.119Z,127.62
2022-12-14T02:54:34.627Z,125.66
2022-12-14T02:55:50.397Z,125.73
2022-12-14T02:57:12.264Z,123.72
2022-12-14T02:58:24.663Z,124.26
2022-12-14T02:59:31.839Z,122.80
2022-12-14T03:00:39.408Z,126.58
2022-12-14T03:01:47.970Z,127.96
2022-12-14T03:02:54.130Z,125.82
2022-12-14T03:04:00.373Z,124.46
2022-12-14T03:05:05.163Z,127.16
2022-12-14T03:06:26.437Z,125.94
2022-12-14T03:07:45.721Z,125.56
2022-12-14T03:09:04.171Z,126.41
2022-12-14T03:10:35.832Z,126.54
2022-12-14T03:11:56.386Z,127.56
2022-12-14T03:13:18.825Z,129.03
2022-12-14T03:14:31.922Z,125.79
2022-12-14T03:15:48.459Z,127.76
2022-12-14T03:16:57.578Z,125.64
2022-12-14T03:18:10.121Z,127.27
2022-12-14T03:19:23.539Z,121.85
2022-12-14T03:20:37.102Z,124.47
2022-12-14T03:21:51.880Z,121.76
2022-12-14T03:23:04.005Z,120.34
2022-12-14T03:24:19.315Z,116.02
2022-12-14T03:25:38.119Z,116.55
2022-12-14T03:26:53.753Z,114.90
2022-12-14T03:28:10.186Z,114.56
2022-12-14T03:29:23.130Z,113.75
2022-12-14T03:30:58.698Z,112.78
2022-12-14T03:32:06.987Z,110.34
2022-12-14T03:33:19.634Z,111.28
2022-12-14T03:34:34.690Z,110.27
2022-12-14T03:35:47.183Z,110.16
2022-12-14T03:37:03.359Z,108.82
2022-12-14T03:38:19.943Z,108.84
2022-12-14T03:39:36.546Z,105.40
2022-12-14T03:40:51.136Z,107.21
2022-12-14T03:42:13.670Z,104.55
2022-12-14T03:43:34.399Z,106.63
2022-12-14T03:44:50.295Z,107.08
2022-12-14T03:46:10.315Z,105.01
2022-12-14T03:47:46.915Z,103.02
2022-12-14T03:48:56.853Z,104.82
2022-12-14T03:50:11.618Z,104.90
2022-12-14T03:51:33.746Z,102.34
2022-12-14T03:52:46.876Z,100.70
2022-12-14T03:54:09.858Z,98.91
2022-12-14T03:55:33.374Z,97.60
2022-12-14T03:56:53.057Z,95.70
2022-12-14T03:58:26.641Z,96.42
2022-12-14T03:59:50.007Z,94.59
2022-12-14T04:01:07.036Z,96.23
2022-12-14T04:02:29.369Z,98.34
2022-12-14T04:03:56.670Z,100.15
2022-12-14T04:05:12.805Z,98.86
2022-12-14T04:06:32.359Z,100.65
2022-12-14T04:07:48.595Z,100.73
2022-12-14T04:09:07.309Z,97.76
2022-12-14T04:10:35.138Z,104.07
2022-12-14T04:12:06.501Z,102.48
2022-12-14T04:13:33.262Z,100.80
2022-12-14T04:15:02.815Z,101.23
2022-12-14T04:16:30.841Z,102.00
2022-12-14T04:17:57.954Z,105.43
2022-12-14T04:19:15.969Z,107.82
2022-12-14T04:20:31.188Z,107.48
2022-12-14T04:21:44.929Z,107.55
2022-12-14T04:23:02.439Z,108.25
2022-12-14T04:24:35.941Z,112.70
2022-12-14T04:26:02.554Z,111.04
2022-12-14T04:27:21.752Z,109.21
2022-12-14T04:28:50.752Z,109.98
2022-12-14T04:30:03.726Z,109.17
2022-12-14T04:31:15.349Z,110.95
2022-12-14T04:32:30.960Z,113.17
2022-12-14T04:33:47.655Z,114.31
2022-12-14T04:35:03.989Z,112.99
2022-12-14T04:36:08.564Z,112.89
2022-12-14T04:37:22.904Z,114.78
2022-12-14T04:38:37.708Z,116.35
2022-12-14T04:39:54.828Z,116.27
2022-12-14T04:41:10.621Z,118.27
2022-12-14T04:42:21.801Z,116.75
2022-12-14T04:43:34.905Z,117.63
2022-12-14T04:44:46.760Z,117.07
2022-12-14T04:46:02.471Z,113.46
2022-12-14T04:47:17.578Z,113.30
2022-12-14T04:48:37.166Z,110.02
2022-12-14T04:49:56.555Z,109.24
2022-12-14T04:51:17.623Z,107.51
2022-12-14T04:52:36.458Z,107.50
2022-12-14T04:53:50.685Z,102.50
2022-12-14T04:55:06.011Z,103.23
2022-12-14T04:56:23.734Z,100.75
2022-12-14T04:57:40.798Z,101.75
2022-12-14T04:58:44.802Z,99.17
2022-12-14T04:59:53.482Z,95.97
2022-12-14T05:01:22.778Z,92.36
2022-12-14T05:03:00.185Z,91.03
2022-12-14T05:04:19.249Z,94.85
2022-12-14T05:05:39.767Z,95.39
2022-12-14T05:07:07.729Z,96.65
2022-12-14T05:08:26.682Z,92.09
2022-12-14T05:09:42.296Z,96.59
2022-12-14T05:11:14.955Z,98.20
2022-12-14T05:12:34.185Z,94.58
2022-12-14T05:13:48.948Z,95.73
2022-12-14T05:15:09.424Z,98.45
2022-12-14T05:16:20.482Z,97.54
2022-12-14T05:17:27.459Z,97.57
2022-12-14T05:18:36.669Z,96.52
2022-12-14T05:19:49.130Z,94.01
2022-12-14T05:20:55.100Z,92.77
2022-12-14T05:22:10.839Z,89.05
2022-12-14T05:23:16.615Z,91.12
2022-12-14T05:24:22.524Z,89.95
2022-12-14T05:25:28.640Z,90.24
2022-12-14T05:26:32.648Z,90.17
2022-12-14T05:27:38.610Z,91.35
2022-12-14T05:28:45.924Z,90.01
2022-12-14T05:29:58.432Z,89.10
2022-12-14T05:31:01.905Z,89.92
2022-12-14T05:32:07.951Z,90.17
2022-12-14T05:33:19.571Z,89.20
2022-12-14T05:34:27.012Z,89.84
2022-12-14T05:35:30.473Z,88.80
2022-12-14T05:36:39.017Z,87.62
2022-12-14T05:37:45.448Z,87.58
2022-12-14T05:38:52.733Z,88.16
2022-12-14T05:39:59.358Z,87.28
2022-12-14T05:41:02.746Z,87.92
2022-12-14T05:42:10.547Z,88.64
2022-12-14T05:43:14.261Z,89.69
2022-12-14T05:44:20.167Z,87.30
2022-12-14T05:45:24.416Z,87.34
2022-12-14T05:46:30.435Z,86.04
2022-12-14T05:47:33.847Z,85.12
2022-12-14T05:48:39.690Z,87.73
2022-12-14T05:49:45.712Z,85.81
2022-12-14T05:50:54.031Z,86.29
2022-12-14T05:52:02.839Z,84.20
2022-12-14T05:53:06.239Z,83.85
2022-12-14T05:54:12.264Z,85.40
2022-12-14T05:55:17.220Z,86.41
2022-12-14T05:56:24.129Z,84.42
2022-12-14T05:57:30.018Z,84.71
2022-12-14T05:58:34.257Z,83.78
2022-12-14T05:59:40.280Z,83.89
2022-12-14T06:00:43.586Z,85.21
2022-12-14T06:01:53.248Z,84.86
2022-12-14T06:02:56.606Z,83.33
2022-12-14T06:04:02.686Z,83.90
2022-12-14T06:05:07.181Z,82.40
2022-12-14T06:06:16.594Z,81.30
2022-12-14T06:07:27.713Z,81.38
2022-12-14T06:08:38.581Z,81.11
2022-12-14T06:09:44.454Z,79.24
2022-12-14T06:10:47.688Z,81.33
2022-12-14T06:11:53.861Z,81.12
2022-12-14T06:12:58.182Z,82.46
2022-12-14T06:14:04.153Z,81.75
2022-12-14T06:15:09.038Z,82.01
2022-12-14T06:16:19.147Z,81.99
2022-12-14T06:17:22.456Z,81.95
2022-12-14T06:18:29.172Z,84.46
2022-12-14T06:19:35.071Z,85.44
2022-12-14T06:20:38.412Z,83.58
2022-12-14T06:21:46.856Z,84.13
2022-12-14T06:22:55.270Z,83.89
2022-12-14T06:24:03.352Z,84.59
2022-12-14T06:25:08.774Z,84.73
2022-12-14T06:26:15.979Z,82.53
2022-12-14T06:27:21.924Z,82.83
2022-12-14T06:28:26.317Z,82.31
2022-12-14T06:29:33.595Z,84.51
2022-12-14T06:30:36.973Z,82.92
2022-12-14T06:31:43.032Z,84.35
2022-12-14T06:32:46.513Z,83.49
2022-12-14T06:33:53.482Z,82.56
2022-12-14T06:35:00.259Z,80.69
2022-12-14T06:36:04.604Z,83.37
2022-12-14T06:37:10.813Z,82.41
2022-12-14T06:38:18.189Z,83.90
2022-12-14T06:39:24.245Z,84.16
2022-12-14T06:40:28.418Z,82.82
2022-12-14T06:41:34.838Z,83.02
2022-12-14T06:42:40.744Z,82.40
2022-12-14T06:43:49.353Z,81.85
2022-12-14T06:44:55.767Z,81.05
2022-12-14T06:46:00.104Z,82.14
2022-12-14T06:47:06.133Z,80.82
2022-12-14T06:48:10.043Z,84.37
2022-12-14T06:49:19.806Z,82.75
2022-12-14T06:50:23.213Z,80.44
2022-12-14T06:51:30.074Z,80.55
2022-12-14T06:52:37.743Z,82.63
2022-12-14T06:53:43.861Z,84.70
2022-12-14T06:54:50.816Z,86.29
2022-12-14T06:55:54.111Z,87.99
2022-12-14T06:57:00.927Z,91.53
2022-12-14T06:58:04.509Z,91.71
2022-12-14T06:59:11.575Z,93.98
2022-12-14T07:00:18.553Z,91.68
2022-12-14T07:01:29.035Z,91.09
2022-12-14T07:02:36.169Z,88.91
2022-12-14T07:03:43.759Z,91.28
2022-12-14T07:04:49.624Z,93.05
2022-12-14T07:05:57.529Z,93.23
2022-12-14T07:07:03.398Z,91.12
2022-12-14T07:08:07.584Z,93.67
2022-12-14T07:09:18.296Z,92.99
2022-12-14T07:10:24.364Z,91.86
2022-12-14T07:11:33.499Z,94.92
2022-12-14T07:12:37.477Z,93.80
2022-12-14T07:13:45.212Z,95.11
2022-12-14T07:14:54.895Z,94.73
2022-12-14T07:16:00.378Z,94.70
2022-12-14T07:17:07.547Z,94.41
2022-12-14T07:18:11.026Z,90.81
2022-12-14T07:19:18.322Z,91.28
2022-12-14T07:20:24.392Z,91.61
2022-12-14T07:21:30.532Z,93.52
2022-12-14T07:22:37.344Z,91.38
2022-12-14T07:23:43.157Z,90.64
2022-12-14T07:24:53.274Z,88.08
2022-12-14T07:26:02.732Z,90.86
2022-12-14T07:27:09.444Z,89.25
2022-12-14T07:28:12.702Z,85.80
2022-12-14T07:29:18.864Z,86.12
2022-12-14T07:30:23.125Z,84.90
2022-12-14T07:31:31.700Z,81.51
2022-12-14T07:32:37.732Z,77.73
2022-12-14T07:33:41.117Z,77.46
2022-12-14T07:34:47.041Z,76.15
2022-12-14T07:35:51.672Z,75.84
2022-12-14T07:36:58.534Z,75.05
2022-12-14T07:38:04.565Z,74.53
2022-12-14T07:39:10.968Z,74.03
2022-12-14T07:40:20.074Z,73.62
2022-12-14T07:41:27.118Z,74.08
2022-12-14T07:42:33.291Z,74.67
2022-12-14T07:43:36.875Z,75.57
2022-12-14T07:44:42.844Z,75.53
2022-12-14T07:45:46.191Z,73.50
2022-12-14T07:46:53.378Z,72.21
2022-12-14T07:47:59.329Z,73.25
2022-12-14T07:49:06.813Z,74.84
2022-12-14T07:50:13.508Z,73.74
2022-12-14T07:51:23.943Z,75.37
2022-12-14T07:52:37.152Z,74.06
2022-12-14T07:53:45.390Z,72.94
2022-12-14T07:54:52.662Z,74.89
2022-12-14T07:56:05.599Z,70.74
2022-12-14T07:57:11.457Z,66.99
2022-12-14T07:58:16.070Z,71.80
2022-12-14T07:59:22.472Z,78.55
2022-12-14T08:00:25.956Z,71.10
2022-12-14T08:01:34.632Z,66.06
2022-12-14T08:02:40.681Z,67.03
2022-12-14T08:03:51.075Z,66.73
2022-12-14T08:04:57.117Z,68.08
2022-12-14T08:06:04.541Z,68.37
2022-12-14T08:07:10.394Z,71.59
2022-12-14T08:08:14.112Z,71.11
2022-12-14T08:09:21.215Z,72.22
2022-12-14T08:10:25.213Z,73.53
2022-12-14T08:11:33.876Z,75.60
2022-12-14T08:12:40.333Z,76.21
2022-12-14T08:13:44.055Z,75.27
2022-12-14T08:14:52.122Z,76.40
2022-12-14T08:15:58.486Z,74.54
2022-12-14T08:17:05.489Z,75.95
2022-12-14T08:18:11.397Z,75.24
2022-12-14T08:19:15.292Z,73.51
2022-12-14T08:20:22.058Z,75.14
2022-12-14T08:21:29.882Z,71.66
2022-12-14T08:22:35.926Z,71.87
2022-12-14T08:23:43.392Z,70.99
2022-12-14T08:24:49.406Z,69.85
2022-12-14T08:25:55.371Z,70.66
2022-12-14T08:27:03.925Z,69.62
2022-12-14T08:28:07.336Z,69.99
2022-12-14T08:29:15.584Z,70.66
2022-12-14T08:30:21.680Z,71.30
2022-12-14T08:31:30.917Z,72.60
2022-12-14T08:32:37.142Z,71.88
2022-12-14T08:33:45.340Z,71.48
2022-12-14T08:34:52.623Z,71.62
2022-12-14T08:35:55.976Z,70.54
2022-12-14T08:37:02.827Z,68.76
2022-12-14T08:38:06.191Z,68.67
2022-12-14T08:39:14.207Z,68.99
2022-12-14T08:40:17.596Z,70.09
2022-12-14T08:41:23.842Z,68.97
2022-12-14T08:42:36.295Z,67.41
2022-12-14T08:43:45.368Z,68.17
2022-12-14T08:44:51.302Z,69.83
2022-12-14T08:45:55.862Z,69.05
2022-12-14T08:47:01.978Z,67.23
2022-12-14T08:48:06.792Z,69.57
2022-12-14T08:49:14.248Z,70.95
2022-12-14T08:50:20.681Z,70.04
2022-12-14T08:51:29.236Z,69.41
2022-12-14T08:52:35.291Z,66.95
2022-12-14T08:53:43.413Z,66.81
2022-12-14T08:54:49.420Z,68.06
2022-12-14T08:55:53.085Z,67.26
2022-12-14T08:56:58.964Z,67.57
2022-12-14T08:58:07.488Z,68.46
2022-12-14T08:59:30.237Z,70.74
2022-12-14T09:00:41.996Z,68.48
2022-12-14T09:01:48.508Z,71.17
2022-12-14T09:02:52.585Z,68.38
2022-12-14T09:03:58.778Z,68.31
2022-12-14T09:05:06.139Z,67.15
2022-12-14T09:06:17.370Z,67.91
2022-12-14T09:07:23.362Z,68.43
2022-12-14T09:08:30.383Z,65.78
2022-12-14T09:09:38.694Z,65.43
2022-12-14T09:10:51.972Z,66.36
2022-12-14T09:11:57.998Z,64.42
2022-12-14T09:13:04.006Z,64.38
2022-12-14T09:14:09.885Z,67.99
2022-12-14T09:15:15.891Z,65.92
2022-12-14T09:16:26.511Z,64.27
2022-12-14T09:17:32.920Z,64.26
2022-12-14T09:18:39.042Z,63.38
2022-12-14T09:19:45.169Z,61.79
2022-12-14T09:20:51.868Z,62.75
2022-12-14T09:21:59.477Z,64.13
2022-12-14T09:23:05.510Z,63.81
2022-12-14T09:24:13.293Z,65.13
2022-12-14T09:25:16.919Z,67.92
2022-12-14T09:26:26.199Z,64.55
2022-12-14T09:27:33.788Z,65.90
2022-12-14T09:28:45.206Z,65.97
2022-12-14T09:29:51.320Z,66.07
2022-12-14T09:31:02.317Z,64.36
2022-12-14T09:32:09.296Z,68.22
2022-12-14T09:33:13.566Z,65.32
2022-12-14T09:34:19.617Z,66.70
2022-12-14T09:35:25.657Z,63.82
2022-12-14T09:36:32.383Z,63.54
2022-12-14T09:37:39.252Z,65.96
2022-12-14T09:38:51.572Z,65.00
2022-12-14T09:39:58.246Z,67.70
2022-12-14T09:41:07.665Z,67.73
2022-12-14T09:42:50.523Z,69.57
2022-12-14T09:44:18.734Z,68.91
2022-12-14T09:45:35.680Z,68.98
2022-12-14T09:47:01.986Z,71.51
2022-12-14T09:48:20.522Z,71.68
2022-12-14T09:49:35.331Z,69.59
2022-12-14T09:50:43.771Z,68.34
2022-12-14T09:51:47.419Z,65.08
2022-12-14T09:52:59.167Z,66.48
2022-12-14T09:54:13.928Z,66.02
2022-12-14T09:55:27.416Z,65.69
2022-12-14T09:56:36.946Z,64.83
2022-12-14T09:57:48.092Z,69.14
2022-12-14T09:59:02.387Z,66.04
2022-12-14T10:00:18.306Z,65.93
2022-12-14T10:03:54.865Z,65.09
2022-12-14T10:05:35.477Z,65.15
2022-12-14T10:06:55.609Z,63.75
2022-12-14T10:08:11.896Z,63.68
2022-12-14T10:09:32.729Z,62.61
2022-12-14T10:10:53.787Z,63.67
2022-12-14T10:12:26.315Z,61.65
2022-12-14T10:13:59.318Z,61.19
2022-12-14T10:15:27.802Z,56.68
2022-12-14T10:16:52.088Z,57.57
2022-12-14T10:19:02.028Z,55.37
2022-12-14T10:20:25.226Z,54.31
2022-12-14T10:21:47.128Z,55.15
2022-12-14T10:22:56.509Z,55.61
2022-12-14T10:24:06.734Z,55.18
2022-12-14T10:25:21.756Z,56.18
2022-12-14T10:26:39.240Z,53.73
2022-12-14T10:28:12.492Z,52.34
2022-12-14T10:29:34.633Z,51.56
2022-12-14T10:30:46.879Z,52.00
2022-12-14T10:32:08.077Z,51.96
2022-12-14T10:33:27.823Z,55.28
2022-12-14T10:34:35.087Z,51.17
2022-12-14T10:35:53.149Z,52.67
2022-12-14T10:37:23.851Z,47.75
2022-12-14T10:38:44.459Z,44.90
2022-12-14T10:40:33.545Z,44.43
2022-12-14T10:41:53.246Z,46.34
2022-12-14T10:43:46.362Z,46.03
2022-12-14T10:45:39.865Z,46.43
2022-12-14T10:47:00.134Z,45.70
2022-12-14T10:48:40.004Z,46.57
2022-12-14T10:50:00.880Z,47.33
2022-12-14T10:51:14.023Z,48.21
2022-12-14T10:52:26.595Z,50.27
2022-12-14T10:53:44.205Z,50.96
2022-12-14T10:54:57.754Z,50.77
2022-12-14T10:56:15.316Z,50.25
2022-12-14T10:57:26.658Z,48.79
2022-12-14T10:58:30.304Z,49.49
2022-12-14T10:59:47.965Z,50.16
2022-12-14T11:01:06.647Z,50.33
2022-12-14T11:02:19.380Z,49.44
2022-12-14T11:03:26.555Z,47.21
2022-12-14T11:04:39.254Z,46.89
2022-12-14T11:06:01.921Z,50.71
2022-12-14T11:07:11.486Z,50.77
2022-12-14T11:08:48.346Z,52.60
2022-12-14T11:09:56.356Z,53.63
2022-12-14T11:11:19.181Z,56.11
2022-12-14T11:12:29.994Z,54.11
2022-12-14T11:13:35.995Z,54.75
2022-12-14T11:14:53.492Z,53.38
2022-12-14T11:16:33.640Z,52.60
2022-12-14T11:17:47.225Z,49.70
2022-12-14T11:19:00.106Z,51.14
2022-12-14T11:20:24.465Z,51.00
2022-12-14T11:21:38.204Z,50.96
2022-12-14T11:22:49.210Z,49.45
2022-12-14T11:23:58.464Z,48.73
2022-12-14T11:25:04.501Z,49.78
2022-12-14T11:26:17.843Z,50.44
2022-12-14T11:27:25.146Z,50.65
2022-12-14T11:28:37.724Z,48.90
2022-12-14T11:29:51.080Z,50.93
2022-12-14T11:31:06.019Z,50.07
2022-12-14T11:32:25.951Z,50.78
2022-12-14T11:33:43.296Z,49.49
2022-12-14T11:35:00.387Z,49.84
2022-12-14T11:36:07.543Z,49.93
2022-12-14T11:37:26.543Z,48.37
2022-12-14T11:38:34.311Z,47.67
2022-12-14T11:39:45.349Z,51.93
2022-12-14T11:40:55.718Z,54.06
2022-12-14T11:42:07.036Z,50.98
2022-12-14T11:43:30.211Z,50.60
2022-12-14T11:44:40.202Z,52.48
2022-12-14T11:45:55.117Z,59.88
2022-12-14T11:47:10.007Z,56.29
2022-12-14T11:48:26.107Z,60.58
2022-12-14T11:49:46.426Z,56.87
2022-12-14T11:50:56.408Z,57.71
2022-12-14T11:52:12.253Z,61.05
2022-12-14T11:53:21.730Z,59.93
2022-12-14T11:54:30.870Z,55.97
2022-12-14T11:55:43.535Z,64.24
2022-12-14T11:56:54.401Z,61.48
2022-12-14T11:58:02.904Z,54.26
2022-12-14T11:59:09.166Z,52.28
2022-12-14T12:00:28.742Z,59.17
2022-12-14T12:01:35.178Z,66.93
2022-12-14T12:02:51.912Z,64.61
2022-12-14T12:04:01.851Z,68.85
2022-12-14T12:05:18.993Z,55.46
2022-12-14T12:06:28.684Z,58.27
2022-12-14T12:07:39.486Z,58.97
2022-12-14T12:08:47.897Z,50.03
2022-12-14T12:09:51.583Z,53.53
2022-12-14T12:11:02.373Z,54.53
2022-12-14T12:12:18.245Z,57.93
2022-12-14T12:13:33.137Z,54.05
2022-12-14T12:14:42.914Z,52.78
2022-12-14T12:15:57.557Z,58.23
2022-12-14T12:17:05.602Z,58.61
2022-12-14T12:18:24.332Z,52.69
2022-12-14T12:19:40.583Z,51.98
2022-12-14T12:21:00.148Z,58.54
2022-12-14T12:22:13.584Z,56.99
2022-12-14T12:23:29.154Z,62.20
2022-12-14T12:25:16.273Z,66.49
2022-12-14T12:26:22.851Z,62.13
2022-12-14T12:27:32.529Z,64.16
2022-12-14T12:28:50.404Z,61.32
2022-12-14T12:30:07.994Z,63.25
2022-12-14T12:31:29.375Z,58.50
2022-12-14T12:32:50.257Z,55.25
2022-12-14T12:34:05.711Z,53.86
2022-12-14T12:35:24.193Z,51.33
2022-12-14T12:36:36.534Z,52.05
2022-12-14T12:37:51.951Z,53.45
2022-12-14T12:39:09.633Z,54.17
2022-12-14T12:40:20.171Z,54.45
2022-12-14T12:41:41.209Z,53.68
2022-12-14T12:42:57.363Z,54.83
2022-12-14T12:44:24.257Z,54.55
2022-12-14T12:45:41.152Z,50.90
2022-12-14T12:47:25.564Z,49.26
2022-12-14T12:48:42.811Z,48.13
2022-12-14T12:49:48.925Z,50.19
2022-12-14T12:51:05.032Z,46.72
2022-12-14T12:52:27.259Z,46.83
2022-12-14T12:53:41.978Z,47.68
2022-12-14T12:55:04.292Z,46.10
2022-12-14T12:56:18.707Z,49.19
2022-12-14T12:57:29.443Z,49.46
2022-12-14T12:58:37.427Z,49.33
2022-12-14T12:59:53.462Z,49.30
2022-12-14T13:01:05.584Z,50.93
2022-12-14T13:02:31.499Z,51.11
2022-12-14T13:03:46.031Z,52.81
2022-12-14T13:04:56.915Z,54.12
2022-12-14T13:06:18.931Z,53.49
2022-12-14T13:07:39.670Z,57.37
2022-12-14T13:08:51.745Z,57.84
2022-12-14T13:10:06.511Z,58.36
2022-12-14T13:11:26.752Z,55.79
2022-12-14T13:12:42.150Z,55.11
2022-12-14T13:13:55.733Z,53.73
2022-12-14T13:15:08.166Z,56.80
2022-12-14T13:16:27.470Z,54.57
2022-12-14T13:17:47.166Z,54.71
2022-12-14T13:19:25.308Z,55.13
2022-12-14T13:20:36.755Z,58.02
2022-12-14T13:21:50.073Z,57.49
2022-12-14T13:23:15.230Z,57.50
2022-12-14T13:24:27.493Z,57.32
2022-12-14T13:25:55.036Z,61.43
2022-12-14T13:27:34.945Z,62.39
2022-12-14T13:29:04.822Z,64.23
2022-12-14T13:30:35.609Z,61.07
2022-12-14T13:31:58.840Z,60.37
2022-12-14T13:33:55.198Z,61.91
2022-12-14T13:35:26.162Z,61.91
2022-12-14T13:37:05.345Z,64.90
2022-12-14T13:38:48.742Z,62.66
2022-12-14T13:40:42.099Z,59.28
2022-12-14T13:42:05.071Z,60.39
2022-12-14T13:43:37.378Z,59.86
2022-12-14T13:45:01.967Z,58.00
2022-12-14T13:46:19.897Z,57.04
2022-12-14T13:47:36.004Z,58.52
2022-12-14T13:48:45.009Z,54.16
2022-12-14T13:51:37.871Z,58.22
2022-12-14T13:52:50.932Z,59.41
2022-12-14T13:54:03.675Z,60.77
2022-12-14T13:55:30.753Z,56.58
2022-12-14T13:56:42.223Z,54.84
2022-12-14T13:57:46.651Z,54.23
2022-12-14T13:59:00.545Z,53.92
2022-12-14T14:00:08.050Z,54.17
2022-12-14T14:01:39.908Z,58.18
2022-12-14T14:02:55.879Z,55.58
2022-12-14T14:04:25.967Z,57.16
2022-12-14T14:05:48.780Z,54.84
2022-12-14T14:06:56.445Z,55.49
2022-12-14T14:08:06.372Z,55.29
2022-12-14T14:10:04.447Z,57.78
2022-12-14T14:12:04.866Z,56.45
2022-12-14T14:13:55.396Z,61.43
2022-12-14T14:15:31.822Z,68.56
2022-12-14T14:16:46.058Z,96.06
2022-12-14T14:17:58.536Z,84.87
2022-12-14T14:19:22.930Z,87.51
2022-12-14T14:20:42.763Z,72.87
2022-12-14T14:22:24.635Z,64.15
2022-12-14T14:23:56.148Z,66.07
2022-12-14T14:25:10.081Z,65.54
2022-12-14T14:26:37.382Z,64.71
2022-12-14T14:27:52.617Z,63.54
2022-12-14T14:29:27.722Z,64.63
2022-12-14T14:30:44.642Z,63.57
2022-12-14T14:31:57.846Z,60.74
2022-12-14T14:33:48.708Z,59.45
2022-12-14T14:34:56.520Z,59.89
2022-12-14T14:36:13.577Z,59.20
2022-12-14T14:37:34.382Z,61.79
2022-12-14T14:38:41.742Z,61.36
2022-12-14T14:39:57.656Z,62.94
2022-12-14T14:41:17.616Z,65.60
2022-12-14T14:42:32.044Z,66.33
2022-12-14T14:43:45.360Z,72.28
2022-12-14T14:45:00.286Z,79.47
2022-12-14T14:46:14.486Z,105.56
2022-12-14T14:47:34.247Z,87.11
2022-12-14T14:48:53.270Z,79.29
2022-12-14T14:50:06.198Z,72.22
2022-12-14T14:51:27.195Z,69.43
2022-12-14T14:53:32.217Z,68.74
2022-12-14T14:56:46.657Z,66.44
2022-12-14T14:58:03.887Z,69.23
2022-12-14T14:59:50.759Z,69.37
2022-12-14T15:01:15.498Z,67.76
2022-12-14T15:02:43.146Z,65.22
2022-12-14T15:04:00.190Z,65.81
2022-12-14T15:05:40.980Z,64.82
2022-12-14T15:06:47.491Z,67.44
2022-12-14T15:07:56.769Z,69.14
2022-12-14T15:09:15.465Z,71.40
2022-12-14T15:10:35.565Z,69.82
2022-12-14T15:11:50.508Z,66.10
2022-12-14T15:13:06.263Z,64.45
2022-12-14T15:14:36.393Z,63.33
2022-12-14T15:15:48.881Z,60.90
2022-12-14T15:16:55.485Z,61.15
2022-12-14T15:18:23.866Z,58.56
2022-12-14T15:19:38.478Z,61.67
2022-12-14T15:20:46.029Z,62.11
2022-12-14T15:21:56.121Z,63.43
2022-12-14T15:23:02.274Z,60.05
2022-12-14T15:24:09.103Z,62.62
2022-12-14T15:25:26.459Z,63.17
2022-12-14T15:26:37.436Z,63.76
2022-12-14T15:27:44.802Z,63.09
2022-12-14T15:28:54.588Z,69.11
2022-12-14T15:30:09.410Z,74.31
2022-12-14T15:31:17.730Z,84.15
2022-12-14T15:32:29.371Z,85.39
2022-12-14T15:33:38.500Z,88.28
2022-12-14T15:35:01.243Z,88.64
2022-12-14T15:36:16.924Z,107.22
2022-12-14T15:37:33.373Z,103.38
2022-12-14T15:38:40.516Z,111.56
2022-12-14T15:39:44.651Z,91.64